sensor_id;sensor_type;location;lat;lon;timestamp;P1;durP1;ratioP1;P2;durP2;ratioP2
22965;SDS011;11649;48.090;9.754;2022-09-29T00:02:18;8.20;;;7.40;;
22965;SDS011;11649;48.090;9.754;2022-09-29T00:04:45;8.70;;;7.80;;
22965;SDS011;11649;48.090;9.754;2022-09-29T00:07:12;9.05;;;7.90;;
22965;SDS011;11649;48.090;9.754;2022-09-29T00:09:39;7.90;;;7.10;;
22965;SDS011;11649;48.090;9.754;2022-09-29T00:12:05;8.20;;;7.40;;
22965;SDS011;11649;48.090;9.754;2022-09-29T00:14:32;7.90;;;7.10;;
22965;SDS011;11649;48.090;9.754;2022-09-29T00:16:59;8.00;;;7.20;;
22965;SDS011;11649;48.090;9.754;2022-09-29T00:19:25;7.82;;;7.00;;
22965;SDS011;11649;48.090;9.754;2022-09-29T00:21:53;8.50;;;7.65;;
22965;SDS011;11649;48.090;9.754;2022-09-29T00:24:20;7.00;;;6.40;;
22965;SDS011;11649;48.090;9.754;2022-09-29T00:26:47;6.90;;;6.20;;
22965;SDS011;11649;48.090;9.754;2022-09-29T00:29:14;6.78;;;6.07;;
22965;SDS011;11649;48.090;9.754;2022-09-29T00:31:40;7.72;;;6.18;;
22965;SDS011;11649;48.090;9.754;2022-09-29T00:34:07;7.00;;;6.30;;
22965;SDS011;11649;48.090;9.754;2022-09-29T00:36:34;9.18;;;6.07;;
22965;SDS011;11649;48.090;9.754;2022-09-29T00:39:01;6.07;;;5.55;;
22965;SDS011;11649;48.090;9.754;2022-09-29T00:41:29;7.90;;;6.28;;
22965;SDS011;11649;48.090;9.754;2022-09-29T00:52:01;6.82;;;6.13;;
22965;SDS011;11649;48.090;9.754;2022-09-29T00:54:35;6.22;;;5.53;;
22965;SDS011;11649;48.090;9.754;2022-09-29T00:57:05;7.55;;;5.50;;
22965;SDS011;11649;48.090;9.754;2022-09-29T00:59:35;6.00;;;5.40;;
22965;SDS011;11649;48.090;9.754;2022-09-29T01:02:14;6.03;;;5.20;;
22965;SDS011;11649;48.090;9.754;2022-09-29T01:04:43;6.50;;;5.50;;
22965;SDS011;11649;48.090;9.754;2022-09-29T01:07:12;7.43;;;5.78;;
22965;SDS011;11649;48.090;9.754;2022-09-29T01:09:40;9.23;;;6.70;;
22965;SDS011;11649;48.090;9.754;2022-09-29T01:12:09;6.75;;;6.05;;
22965;SDS011;11649;48.090;9.754;2022-09-29T01:14:36;7.03;;;5.65;;
22965;SDS011;11649;48.090;9.754;2022-09-29T01:17:03;7.40;;;6.03;;
22965;SDS011;11649;48.090;9.754;2022-09-29T01:22:10;6.70;;;6.00;;
22965;SDS011;11649;48.090;9.754;2022-09-29T01:24:57;6.55;;;5.85;;
22965;SDS011;11649;48.090;9.754;2022-09-29T01:33:11;6.45;;;5.60;;
22965;SDS011;11649;48.090;9.754;2022-09-29T01:41:32;6.13;;;5.43;;
22965;SDS011;11649;48.090;9.754;2022-09-29T01:44:11;6.07;;;5.47;;
22965;SDS011;11649;48.090;9.754;2022-09-29T01:46:44;6.57;;;5.97;;
22965;SDS011;11649;48.090;9.754;2022-09-29T01:49:16;6.78;;;6.07;;
22965;SDS011;11649;48.090;9.754;2022-09-29T01:57:14;6.63;;;6.00;;
22965;SDS011;11649;48.090;9.754;2022-09-29T02:00:04;7.07;;;6.32;;
22965;SDS011;11649;48.090;9.754;2022-09-29T02:02:45;7.35;;;6.22;;
22965;SDS011;11649;48.090;9.754;2022-09-29T02:05:24;7.27;;;6.43;;
22965;SDS011;11649;48.090;9.754;2022-09-29T02:08:09;7.85;;;6.75;;
22965;SDS011;11649;48.090;9.754;2022-09-29T02:11:15;7.15;;;6.45;;
22965;SDS011;11649;48.090;9.754;2022-09-29T02:13:37;7.53;;;6.72;;
22965;SDS011;11649;48.090;9.754;2022-09-29T02:16:05;7.55;;;6.85;;
22965;SDS011;11649;48.090;9.754;2022-09-29T02:18:39;8.18;;;7.00;;
22965;SDS011;11649;48.090;9.754;2022-09-29T02:21:13;8.27;;;6.85;;
22965;SDS011;11649;48.090;9.754;2022-09-29T02:23:39;8.07;;;7.20;;
22965;SDS011;11649;48.090;9.754;2022-09-29T02:26:06;8.25;;;6.93;;
22965;SDS011;11649;48.090;9.754;2022-09-29T02:28:33;8.55;;;6.85;;
22965;SDS011;11649;48.090;9.754;2022-09-29T02:31:00;7.55;;;6.82;;
22965;SDS011;11649;48.090;9.754;2022-09-29T02:33:27;9.13;;;7.35;;
22965;SDS011;11649;48.090;9.754;2022-09-29T02:36:04;7.72;;;6.93;;
22965;SDS011;11649;48.090;9.754;2022-09-29T02:38:46;7.82;;;6.88;;
22965;SDS011;11649;48.090;9.754;2022-09-29T02:46:38;7.35;;;6.65;;
22965;SDS011;11649;48.090;9.754;2022-09-29T02:52:33;7.60;;;6.80;;
22965;SDS011;11649;48.090;9.754;2022-09-29T02:58:09;7.32;;;5.90;;
22965;SDS011;11649;48.090;9.754;2022-09-29T03:00:49;8.10;;;6.82;;
22965;SDS011;11649;48.090;9.754;2022-09-29T03:03:16;7.40;;;6.60;;
22965;SDS011;11649;48.090;9.754;2022-09-29T03:05:44;7.28;;;6.53;;
22965;SDS011;11649;48.090;9.754;2022-09-29T03:08:10;7.47;;;6.68;;
22965;SDS011;11649;48.090;9.754;2022-09-29T03:10:37;7.05;;;6.35;;
22965;SDS011;11649;48.090;9.754;2022-09-29T03:13:04;7.43;;;6.68;;
22965;SDS011;11649;48.090;9.754;2022-09-29T03:15:31;8.13;;;6.20;;
22965;SDS011;11649;48.090;9.754;2022-09-29T03:17:57;8.32;;;6.65;;
22965;SDS011;11649;48.090;9.754;2022-09-29T03:20:24;7.45;;;6.43;;
22965;SDS011;11649;48.090;9.754;2022-09-29T03:22:54;8.10;;;6.05;;
22965;SDS011;11649;48.090;9.754;2022-09-29T03:25:22;7.10;;;6.40;;
22965;SDS011;11649;48.090;9.754;2022-09-29T03:27:50;6.07;;;5.50;;
22965;SDS011;11649;48.090;9.754;2022-09-29T03:30:17;8.32;;;6.28;;
22965;SDS011;11649;48.090;9.754;2022-09-29T03:32:44;6.82;;;6.13;;
22965;SDS011;11649;48.090;9.754;2022-09-29T03:35:11;6.82;;;6.05;;
22965;SDS011;11649;48.090;9.754;2022-09-29T03:37:38;7.15;;;6.28;;
22965;SDS011;11649;48.090;9.754;2022-09-29T03:40:05;7.75;;;6.97;;
22965;SDS011;11649;48.090;9.754;2022-09-29T03:42:32;6.72;;;6.05;;
22965;SDS011;11649;48.090;9.754;2022-09-29T03:44:59;8.75;;;6.47;;
22965;SDS011;11649;48.090;9.754;2022-09-29T03:47:26;9.40;;;7.10;;
22965;SDS011;11649;48.090;9.754;2022-09-29T03:49:53;6.93;;;6.22;;
22965;SDS011;11649;48.090;9.754;2022-09-29T03:52:20;7.50;;;6.70;;
22965;SDS011;11649;48.090;9.754;2022-09-29T03:54:46;9.05;;;6.85;;
22965;SDS011;11649;48.090;9.754;2022-09-29T03:57:13;9.18;;;6.60;;
22965;SDS011;11649;48.090;9.754;2022-09-29T03:59:40;8.50;;;7.35;;
22965;SDS011;11649;48.090;9.754;2022-09-29T04:02:10;10.48;;;7.38;;
22965;SDS011;11649;48.090;9.754;2022-09-29T04:04:37;9.05;;;7.30;;
22965;SDS011;11649;48.090;9.754;2022-09-29T04:07:04;9.70;;;7.82;;
22965;SDS011;11649;48.090;9.754;2022-09-29T04:09:31;8.38;;;7.32;;
22965;SDS011;11649;48.090;9.754;2022-09-29T04:11:58;9.15;;;8.02;;
22965;SDS011;11649;48.090;9.754;2022-09-29T04:14:25;9.50;;;8.23;;
22965;SDS011;11649;48.090;9.754;2022-09-29T04:16:52;10.00;;;8.20;;
22965;SDS011;11649;48.090;9.754;2022-09-29T04:19:18;10.38;;;8.60;;
22965;SDS011;11649;48.090;9.754;2022-09-29T04:21:45;8.60;;;7.70;;
22965;SDS011;11649;48.090;9.754;2022-09-29T04:24:12;9.75;;;8.02;;
22965;SDS011;11649;48.090;9.754;2022-09-29T04:26:39;11.48;;;8.02;;
22965;SDS011;11649;48.090;9.754;2022-09-29T04:29:06;9.32;;;7.25;;
22965;SDS011;11649;48.090;9.754;2022-09-29T04:31:33;8.13;;;7.32;;
22965;SDS011;11649;48.090;9.754;2022-09-29T04:33:59;7.40;;;6.70;;
22965;SDS011;11649;48.090;9.754;2022-09-29T04:36:26;7.40;;;6.28;;
22965;SDS011;11649;48.090;9.754;2022-09-29T04:38:53;7.75;;;6.88;;
22965;SDS011;11649;48.090;9.754;2022-09-29T04:41:19;7.25;;;6.55;;
22965;SDS011;11649;48.090;9.754;2022-09-29T04:43:46;7.28;;;6.57;;
22965;SDS011;11649;48.090;9.754;2022-09-29T04:46:13;11.07;;;7.15;;
22965;SDS011;11649;48.090;9.754;2022-09-29T04:48:40;8.02;;;6.90;;
22965;SDS011;11649;48.090;9.754;2022-09-29T04:51:08;7.05;;;6.35;;
22965;SDS011;11649;48.090;9.754;2022-09-29T04:53:35;8.63;;;6.78;;
22965;SDS011;11649;48.090;9.754;2022-09-29T04:56:06;9.68;;;7.03;;
22965;SDS011;11649;48.090;9.754;2022-09-29T04:58:34;6.80;;;6.10;;
22965;SDS011;11649;48.090;9.754;2022-09-29T05:01:08;7.18;;;6.20;;
22965;SDS011;11649;48.090;9.754;2022-09-29T05:03:39;6.90;;;5.82;;
22965;SDS011;11649;48.090;9.754;2022-09-29T05:06:07;9.90;;;6.15;;
22965;SDS011;11649;48.090;9.754;2022-09-29T05:08:35;7.63;;;6.45;;
22965;SDS011;11649;48.090;9.754;2022-09-29T05:11:02;6.75;;;6.00;;
22965;SDS011;11649;48.090;9.754;2022-09-29T05:13:30;8.55;;;6.40;;
22965;SDS011;11649;48.090;9.754;2022-09-29T05:15:57;7.00;;;6.10;;
22965;SDS011;11649;48.090;9.754;2022-09-29T05:18:24;7.53;;;6.30;;
22965;SDS011;11649;48.090;9.754;2022-09-29T05:20:51;7.47;;;6.22;;
22965;SDS011;11649;48.090;9.754;2022-09-29T05:23:38;7.65;;;5.90;;
22965;SDS011;11649;48.090;9.754;2022-09-29T05:26:07;8.98;;;7.78;;
22965;SDS011;11649;48.090;9.754;2022-09-29T05:28:35;11.30;;;8.60;;
22965;SDS011;11649;48.090;9.754;2022-09-29T05:31:03;8.52;;;6.90;;
22965;SDS011;11649;48.090;9.754;2022-09-29T05:33:33;8.35;;;6.57;;
22965;SDS011;11649;48.090;9.754;2022-09-29T05:36:03;8.65;;;6.72;;
22965;SDS011;11649;48.090;9.754;2022-09-29T05:38:36;7.93;;;6.60;;
22965;SDS011;11649;48.090;9.754;2022-09-29T05:41:13;9.18;;;7.55;;
22965;SDS011;11649;48.090;9.754;2022-09-29T05:43:48;9.55;;;8.13;;
22965;SDS011;11649;48.090;9.754;2022-09-29T05:46:16;12.73;;;8.40;;
22965;SDS011;11649;48.090;9.754;2022-09-29T05:48:48;9.45;;;8.10;;
22965;SDS011;11649;48.090;9.754;2022-09-29T05:51:19;11.60;;;8.40;;
22965;SDS011;11649;48.090;9.754;2022-09-29T05:53:49;11.02;;;9.02;;
22965;SDS011;11649;48.090;9.754;2022-09-29T05:56:17;12.13;;;9.65;;
22965;SDS011;11649;48.090;9.754;2022-09-29T05:58:46;12.82;;;9.40;;
22965;SDS011;11649;48.090;9.754;2022-09-29T06:01:14;11.95;;;9.13;;
22965;SDS011;11649;48.090;9.754;2022-09-29T06:03:43;10.85;;;7.80;;
22965;SDS011;11649;48.090;9.754;2022-09-29T06:06:14;8.75;;;7.57;;
22965;SDS011;11649;48.090;9.754;2022-09-29T06:08:46;7.35;;;6.50;;
22965;SDS011;11649;48.090;9.754;2022-09-29T06:11:14;6.85;;;6.00;;
22965;SDS011;11649;48.090;9.754;2022-09-29T06:13:44;7.45;;;5.82;;
22965;SDS011;11649;48.090;9.754;2022-09-29T06:16:15;7.07;;;5.93;;
22965;SDS011;11649;48.090;9.754;2022-09-29T06:18:43;6.22;;;5.63;;
22965;SDS011;11649;48.090;9.754;2022-09-29T06:21:29;5.90;;;5.32;;
22965;SDS011;11649;48.090;9.754;2022-09-29T06:23:57;7.43;;;5.88;;
22965;SDS011;11649;48.090;9.754;2022-09-29T06:26:24;6.05;;;5.30;;
22965;SDS011;11649;48.090;9.754;2022-09-29T06:28:52;6.28;;;5.50;;
22965;SDS011;11649;48.090;9.754;2022-09-29T06:31:21;8.05;;;5.60;;
22965;SDS011;11649;48.090;9.754;2022-09-29T06:33:50;8.15;;;6.65;;
22965;SDS011;11649;48.090;9.754;2022-09-29T06:36:17;10.50;;;6.20;;
22965;SDS011;11649;48.090;9.754;2022-09-29T06:39:09;7.22;;;5.93;;
22965;SDS011;11649;48.090;9.754;2022-09-29T06:41:37;8.50;;;6.40;;
22965;SDS011;11649;48.090;9.754;2022-09-29T06:44:04;8.45;;;6.20;;
22965;SDS011;11649;48.090;9.754;2022-09-29T06:46:30;7.95;;;6.20;;
22965;SDS011;11649;48.090;9.754;2022-09-29T06:48:57;9.93;;;7.05;;
22965;SDS011;11649;48.090;9.754;2022-09-29T06:51:24;9.18;;;7.28;;
22965;SDS011;11649;48.090;9.754;2022-09-29T06:54:08;8.85;;;6.90;;
22965;SDS011;11649;48.090;9.754;2022-09-29T06:56:39;9.90;;;6.80;;
22965;SDS011;11649;48.090;9.754;2022-09-29T06:59:06;11.80;;;7.60;;
22965;SDS011;11649;48.090;9.754;2022-09-29T07:01:34;9.98;;;7.03;;
22965;SDS011;11649;48.090;9.754;2022-09-29T07:04:00;10.98;;;8.07;;
22965;SDS011;11649;48.090;9.754;2022-09-29T07:06:28;9.85;;;7.10;;
22965;SDS011;11649;48.090;9.754;2022-09-29T07:08:56;8.07;;;6.80;;
22965;SDS011;11649;48.090;9.754;2022-09-29T07:11:24;9.32;;;6.60;;
22965;SDS011;11649;48.090;9.754;2022-09-29T07:13:51;7.25;;;5.70;;
22965;SDS011;11649;48.090;9.754;2022-09-29T07:16:20;7.65;;;6.25;;
22965;SDS011;11649;48.090;9.754;2022-09-29T07:18:50;7.75;;;6.25;;
22965;SDS011;11649;48.090;9.754;2022-09-29T07:21:18;6.22;;;5.38;;
22965;SDS011;11649;48.090;9.754;2022-09-29T07:23:46;6.15;;;5.55;;
22965;SDS011;11649;48.090;9.754;2022-09-29T07:26:14;7.10;;;5.35;;
22965;SDS011;11649;48.090;9.754;2022-09-29T07:28:43;7.53;;;5.63;;
22965;SDS011;11649;48.090;9.754;2022-09-29T07:31:17;7.93;;;6.00;;
22965;SDS011;11649;48.090;9.754;2022-09-29T07:33:46;7.00;;;5.30;;
22965;SDS011;11649;48.090;9.754;2022-09-29T07:36:16;7.18;;;6.00;;
22965;SDS011;11649;48.090;9.754;2022-09-29T07:38:46;7.75;;;5.85;;
22965;SDS011;11649;48.090;9.754;2022-09-29T07:41:15;7.72;;;5.57;;
22965;SDS011;11649;48.090;9.754;2022-09-29T07:43:43;6.68;;;5.18;;
22965;SDS011;11649;48.090;9.754;2022-09-29T07:46:10;6.30;;;4.55;;
22965;SDS011;11649;48.090;9.754;2022-09-29T07:48:38;3.67;;;3.28;;
22965;SDS011;11649;48.090;9.754;2022-09-29T07:51:06;5.38;;;3.50;;
22965;SDS011;11649;48.090;9.754;2022-09-29T07:53:36;3.53;;;2.78;;
22965;SDS011;11649;48.090;9.754;2022-09-29T07:56:03;4.35;;;2.70;;
22965;SDS011;11649;48.090;9.754;2022-09-29T07:58:35;3.22;;;2.90;;
22965;SDS011;11649;48.090;9.754;2022-09-29T08:01:03;2.67;;;2.20;;
22965;SDS011;11649;48.090;9.754;2022-09-29T08:03:36;2.08;;;1.88;;
22965;SDS011;11649;48.090;9.754;2022-09-29T08:06:06;2.40;;;1.77;;
22965;SDS011;11649;48.090;9.754;2022-09-29T08:08:34;2.35;;;2.15;;
22965;SDS011;11649;48.090;9.754;2022-09-29T08:11:06;3.05;;;2.50;;
22965;SDS011;11649;48.090;9.754;2022-09-29T08:13:37;3.90;;;2.47;;
22965;SDS011;11649;48.090;9.754;2022-09-29T08:16:06;3.20;;;2.88;;
22965;SDS011;11649;48.090;9.754;2022-09-29T08:18:34;3.38;;;2.60;;
22965;SDS011;11649;48.090;9.754;2022-09-29T08:21:01;3.88;;;3.05;;
22965;SDS011;11649;48.090;9.754;2022-09-29T08:23:29;3.63;;;2.92;;
22965;SDS011;11649;48.090;9.754;2022-09-29T08:26:04;3.33;;;2.70;;
22965;SDS011;11649;48.090;9.754;2022-09-29T08:28:41;2.63;;;2.15;;
22965;SDS011;11649;48.090;9.754;2022-09-29T08:31:13;2.97;;;2.40;;
22965;SDS011;11649;48.090;9.754;2022-09-29T08:33:46;2.60;;;2.40;;
22965;SDS011;11649;48.090;9.754;2022-09-29T08:36:15;2.35;;;1.80;;
22965;SDS011;11649;48.090;9.754;2022-09-29T08:38:43;1.70;;;1.60;;
22965;SDS011;11649;48.090;9.754;2022-09-29T08:41:26;1.90;;;1.55;;
22965;SDS011;11649;48.090;9.754;2022-09-29T08:44:10;2.95;;;1.63;;
22965;SDS011;11649;48.090;9.754;2022-09-29T08:47:07;2.17;;;1.80;;
22965;SDS011;11649;48.090;9.754;2022-09-29T08:49:51;1.48;;;1.38;;
22965;SDS011;11649;48.090;9.754;2022-09-29T08:52:25;1.60;;;1.30;;
22965;SDS011;11649;48.090;9.754;2022-09-29T08:57:47;0.93;;;0.88;;
22965;SDS011;11649;48.090;9.754;2022-09-29T09:00:20;1.10;;;0.90;;
22965;SDS011;11649;48.090;9.754;2022-09-29T09:16:50;3.72;;;1.80;;
22965;SDS011;11649;48.090;9.754;2022-09-29T09:34:02;4.72;;;1.90;;
22965;SDS011;11649;48.090;9.754;2022-09-29T09:36:38;2.55;;;1.48;;
22965;SDS011;11649;48.090;9.754;2022-09-29T09:41:45;1.52;;;1.42;;
22965;SDS011;11649;48.090;9.754;2022-09-29T09:44:20;2.08;;;1.75;;
22965;SDS011;11649;48.090;9.754;2022-09-29T09:46:58;3.20;;;1.90;;
22965;SDS011;11649;48.090;9.754;2022-09-29T09:55:19;2.60;;;2.10;;
22965;SDS011;11649;48.090;9.754;2022-09-29T10:03:04;2.80;;;1.88;;
22965;SDS011;11649;48.090;9.754;2022-09-29T10:05:36;1.73;;;1.33;;
22965;SDS011;11649;48.090;9.754;2022-09-29T10:10:55;1.90;;;1.70;;
22965;SDS011;11649;48.090;9.754;2022-09-29T10:13:26;2.67;;;1.50;;
22965;SDS011;11649;48.090;9.754;2022-09-29T10:16:05;1.67;;;1.50;;
22965;SDS011;11649;48.090;9.754;2022-09-29T10:18:42;1.52;;;1.40;;
22965;SDS011;11649;48.090;9.754;2022-09-29T10:21:21;1.70;;;1.60;;
22965;SDS011;11649;48.090;9.754;2022-09-29T10:23:52;2.63;;;2.05;;
22965;SDS011;11649;48.090;9.754;2022-09-29T10:26:21;1.98;;;1.77;;
22965;SDS011;11649;48.090;9.754;2022-09-29T10:28:55;2.40;;;1.98;;
22965;SDS011;11649;48.090;9.754;2022-09-29T10:37:01;2.00;;;1.70;;
22965;SDS011;11649;48.090;9.754;2022-09-29T10:39:44;2.78;;;2.00;;
22965;SDS011;11649;48.090;9.754;2022-09-29T10:42:30;1.50;;;1.40;;
22965;SDS011;11649;48.090;9.754;2022-09-29T10:45:03;1.77;;;1.45;;
22965;SDS011;11649;48.090;9.754;2022-09-29T10:47:36;2.40;;;1.67;;
22965;SDS011;11649;48.090;9.754;2022-09-29T10:50:07;3.22;;;2.25;;
22965;SDS011;11649;48.090;9.754;2022-09-29T10:52:43;2.47;;;1.90;;
22965;SDS011;11649;48.090;9.754;2022-09-29T10:55:15;1.90;;;1.70;;
22965;SDS011;11649;48.090;9.754;2022-09-29T10:57:47;1.50;;;1.23;;
22965;SDS011;11649;48.090;9.754;2022-09-29T11:02:59;2.58;;;1.20;;
22965;SDS011;11649;48.090;9.754;2022-09-29T11:05:50;2.75;;;1.40;;
22965;SDS011;11649;48.090;9.754;2022-09-29T11:08:29;1.42;;;1.10;;
22965;SDS011;11649;48.090;9.754;2022-09-29T11:13:42;1.10;;;1.00;;
22965;SDS011;11649;48.090;9.754;2022-09-29T11:16:12;1.52;;;1.10;;
22965;SDS011;11649;48.090;9.754;2022-09-29T11:18:55;0.82;;;0.82;;
22965;SDS011;11649;48.090;9.754;2022-09-29T11:38:58;1.40;;;0.80;;
22965;SDS011;11649;48.090;9.754;2022-09-29T11:41:58;1.63;;;0.90;;
22965;SDS011;11649;48.090;9.754;2022-09-29T11:44:40;1.67;;;0.90;;
22965;SDS011;11649;48.090;9.754;2022-09-29T11:47:21;1.15;;;0.95;;
22965;SDS011;11649;48.090;9.754;2022-09-29T12:09:36;1.40;;;0.80;;
22965;SDS011;11649;48.090;9.754;2022-09-29T12:12:22;0.95;;;0.70;;
22965;SDS011;11649;48.090;9.754;2022-09-29T12:17:52;1.90;;;0.93;;
22965;SDS011;11649;48.090;9.754;2022-09-29T12:22:58;0.50;;;0.50;;
22965;SDS011;11649;48.090;9.754;2022-09-29T12:25:29;1.55;;;0.70;;
22965;SDS011;11649;48.090;9.754;2022-09-29T12:28:01;1.15;;;0.77;;
22965;SDS011;11649;48.090;9.754;2022-09-29T12:30:47;0.70;;;0.70;;
22965;SDS011;11649;48.090;9.754;2022-09-29T12:33:31;0.88;;;0.60;;
22965;SDS011;11649;48.090;9.754;2022-09-29T12:36:24;1.15;;;0.70;;
22965;SDS011;11649;48.090;9.754;2022-09-29T12:39:18;1.10;;;0.68;;
22965;SDS011;11649;48.090;9.754;2022-09-29T12:42:02;1.02;;;0.70;;
22965;SDS011;11649;48.090;9.754;2022-09-29T12:44:39;1.25;;;0.90;;
22965;SDS011;11649;48.090;9.754;2022-09-29T12:47:22;2.35;;;0.70;;
22965;SDS011;11649;48.090;9.754;2022-09-29T12:52:53;0.90;;;0.60;;
22965;SDS011;11649;48.090;9.754;2022-09-29T12:58:31;0.82;;;0.70;;
22965;SDS011;11649;48.090;9.754;2022-09-29T13:28:35;0.57;;;0.40;;
22965;SDS011;11649;48.090;9.754;2022-09-29T13:31:06;1.35;;;0.50;;
22965;SDS011;11649;48.090;9.754;2022-09-29T13:33:37;0.82;;;0.60;;
22965;SDS011;11649;48.090;9.754;2022-09-29T13:36:05;0.65;;;0.45;;
22965;SDS011;11649;48.090;9.754;2022-09-29T13:38:37;1.05;;;0.60;;
22965;SDS011;11649;48.090;9.754;2022-09-29T13:49:10;1.05;;;0.50;;
22965;SDS011;11649;48.090;9.754;2022-09-29T14:05:00;1.25;;;0.60;;
22965;SDS011;11649;48.090;9.754;2022-09-29T14:07:45;0.50;;;0.50;;
22965;SDS011;11649;48.090;9.754;2022-09-29T14:10:36;0.95;;;0.50;;
22965;SDS011;11649;48.090;9.754;2022-09-29T14:13:18;0.57;;;0.50;;
22965;SDS011;11649;48.090;9.754;2022-09-29T14:16:01;0.40;;;0.40;;
22965;SDS011;11649;48.090;9.754;2022-09-29T14:21:43;0.50;;;0.50;;
22965;SDS011;11649;48.090;9.754;2022-09-29T14:29:42;1.13;;;0.80;;
22965;SDS011;11649;48.090;9.754;2022-09-29T14:32:16;1.00;;;0.90;;
22965;SDS011;11649;48.090;9.754;2022-09-29T14:34:46;1.00;;;0.70;;
22965;SDS011;11649;48.090;9.754;2022-09-29T14:37:17;1.00;;;0.82;;
22965;SDS011;11649;48.090;9.754;2022-09-29T14:39:47;1.58;;;0.90;;
22965;SDS011;11649;48.090;9.754;2022-09-29T14:42:34;1.25;;;1.00;;
22965;SDS011;11649;48.090;9.754;2022-09-29T14:45:01;1.38;;;1.00;;
22965;SDS011;11649;48.090;9.754;2022-09-29T14:51:04;1.30;;;0.95;;
22965;SDS011;11649;48.090;9.754;2022-09-29T14:53:58;1.67;;;1.00;;
22965;SDS011;11649;48.090;9.754;2022-09-29T14:56:53;1.48;;;1.10;;
22965;SDS011;11649;48.090;9.754;2022-09-29T14:59:27;2.08;;;0.93;;
22965;SDS011;11649;48.090;9.754;2022-09-29T15:02:20;1.42;;;1.10;;
22965;SDS011;11649;48.090;9.754;2022-09-29T15:04:50;1.33;;;1.20;;
22965;SDS011;11649;48.090;9.754;2022-09-29T15:07:19;2.10;;;1.30;;
22965;SDS011;11649;48.090;9.754;2022-09-29T15:09:59;1.95;;;1.40;;
22965;SDS011;11649;48.090;9.754;2022-09-29T15:12:27;2.20;;;1.30;;
22965;SDS011;11649;48.090;9.754;2022-09-29T15:14:56;1.65;;;1.30;;
22965;SDS011;11649;48.090;9.754;2022-09-29T15:25:44;1.30;;;0.80;;
22965;SDS011;11649;48.090;9.754;2022-09-29T15:30:57;2.00;;;0.90;;
22965;SDS011;11649;48.090;9.754;2022-09-29T15:33:28;0.73;;;0.73;;
22965;SDS011;11649;48.090;9.754;2022-09-29T15:36:00;2.10;;;1.00;;
22965;SDS011;11649;48.090;9.754;2022-09-29T15:38:34;2.03;;;0.90;;
22965;SDS011;11649;48.090;9.754;2022-09-29T15:41:15;1.35;;;1.00;;
22965;SDS011;11649;48.090;9.754;2022-09-29T15:51:37;2.05;;;0.80;;
22965;SDS011;11649;48.090;9.754;2022-09-29T15:54:05;1.05;;;0.95;;
22965;SDS011;11649;48.090;9.754;2022-09-29T15:56:36;1.77;;;1.10;;
22965;SDS011;11649;48.090;9.754;2022-09-29T16:02:12;2.35;;;1.10;;
22965;SDS011;11649;48.090;9.754;2022-09-29T16:04:45;2.55;;;1.13;;
22965;SDS011;11649;48.090;9.754;2022-09-29T16:07:18;3.05;;;1.50;;
22965;SDS011;11649;48.090;9.754;2022-09-29T16:09:48;2.75;;;1.30;;
22965;SDS011;11649;48.090;9.754;2022-09-29T16:12:16;1.48;;;1.23;;
22965;SDS011;11649;48.090;9.754;2022-09-29T16:14:45;3.53;;;1.40;;
22965;SDS011;11649;48.090;9.754;2022-09-29T16:17:15;2.65;;;2.10;;
22965;SDS011;11649;48.090;9.754;2022-09-29T16:19:43;2.67;;;2.15;;
22965;SDS011;11649;48.090;9.754;2022-09-29T16:22:16;1.90;;;1.50;;
22965;SDS011;11649;48.090;9.754;2022-09-29T16:24:53;7.22;;;5.72;;
22965;SDS011;11649;48.090;9.754;2022-09-29T16:27:38;4.97;;;4.20;;
22965;SDS011;11649;48.090;9.754;2022-09-29T16:30:22;3.10;;;2.65;;
22965;SDS011;11649;48.090;9.754;2022-09-29T16:32:51;1.92;;;1.50;;
22965;SDS011;11649;48.090;9.754;2022-09-29T16:38:34;1.90;;;1.65;;
22965;SDS011;11649;48.090;9.754;2022-09-29T16:41:22;2.35;;;1.70;;
22965;SDS011;11649;48.090;9.754;2022-09-29T16:46:43;1.10;;;1.00;;
22965;SDS011;11649;48.090;9.754;2022-09-29T16:49:14;1.63;;;1.20;;
22965;SDS011;11649;48.090;9.754;2022-09-29T16:51:45;1.40;;;1.20;;
22965;SDS011;11649;48.090;9.754;2022-09-29T16:54:15;1.73;;;1.42;;
22965;SDS011;11649;48.090;9.754;2022-09-29T16:56:46;1.42;;;1.20;;
22965;SDS011;11649;48.090;9.754;2022-09-29T16:59:17;1.38;;;1.27;;
22965;SDS011;11649;48.090;9.754;2022-09-29T17:01:46;1.48;;;1.13;;
22965;SDS011;11649;48.090;9.754;2022-09-29T17:04:13;2.08;;;1.30;;
22965;SDS011;11649;48.090;9.754;2022-09-29T17:06:43;1.58;;;1.40;;
22965;SDS011;11649;48.090;9.754;2022-09-29T17:09:15;1.70;;;1.40;;
22965;SDS011;11649;48.090;9.754;2022-09-29T17:11:52;1.35;;;1.25;;
22965;SDS011;11649;48.090;9.754;2022-09-29T17:14:19;1.73;;;1.50;;
22965;SDS011;11649;48.090;9.754;2022-09-29T17:16:49;1.35;;;1.25;;
22965;SDS011;11649;48.090;9.754;2022-09-29T17:19:17;1.92;;;1.40;;
22965;SDS011;11649;48.090;9.754;2022-09-29T17:21:45;1.63;;;1.52;;
22965;SDS011;11649;48.090;9.754;2022-09-29T17:24:12;1.83;;;1.60;;
22965;SDS011;11649;48.090;9.754;2022-09-29T17:26:41;2.40;;;2.20;;
22965;SDS011;11649;48.090;9.754;2022-09-29T17:29:28;2.63;;;2.15;;
22965;SDS011;11649;48.090;9.754;2022-09-29T17:31:55;2.70;;;2.38;;
22965;SDS011;11649;48.090;9.754;2022-09-29T17:34:23;5.18;;;3.33;;
22965;SDS011;11649;48.090;9.754;2022-09-29T17:36:56;5.00;;;4.28;;
22965;SDS011;11649;48.090;9.754;2022-09-29T17:39:25;5.60;;;4.40;;
22965;SDS011;11649;48.090;9.754;2022-09-29T17:41:53;10.15;;;7.75;;
22965;SDS011;11649;48.090;9.754;2022-09-29T17:44:19;10.27;;;7.68;;
22965;SDS011;11649;48.090;9.754;2022-09-29T17:46:46;9.75;;;6.95;;
22965;SDS011;11649;48.090;9.754;2022-09-29T17:49:13;13.02;;;9.10;;
22965;SDS011;11649;48.090;9.754;2022-09-29T17:51:42;15.73;;;9.98;;
22965;SDS011;11649;48.090;9.754;2022-09-29T17:54:09;15.07;;;8.80;;
22965;SDS011;11649;48.090;9.754;2022-09-29T17:56:40;10.05;;;7.13;;
22965;SDS011;11649;48.090;9.754;2022-09-29T17:59:09;11.95;;;8.05;;
22965;SDS011;11649;48.090;9.754;2022-09-29T18:01:36;8.73;;;6.40;;
22965;SDS011;11649;48.090;9.754;2022-09-29T18:04:03;4.97;;;4.03;;
22965;SDS011;11649;48.090;9.754;2022-09-29T18:06:31;6.22;;;4.00;;
22965;SDS011;11649;48.090;9.754;2022-09-29T18:09:06;9.52;;;7.00;;
22965;SDS011;11649;48.090;9.754;2022-09-29T18:11:39;9.05;;;6.15;;
22965;SDS011;11649;48.090;9.754;2022-09-29T18:14:06;12.15;;;9.07;;
22965;SDS011;11649;48.090;9.754;2022-09-29T18:16:33;14.27;;;9.90;;
22965;SDS011;11649;48.090;9.754;2022-09-29T18:19:00;10.35;;;7.97;;
22965;SDS011;11649;48.090;9.754;2022-09-29T18:21:26;14.68;;;9.20;;
22965;SDS011;11649;48.090;9.754;2022-09-29T18:23:54;11.20;;;9.07;;
22965;SDS011;11649;48.090;9.754;2022-09-29T18:26:22;10.45;;;7.85;;
22965;SDS011;11649;48.090;9.754;2022-09-29T18:28:49;16.55;;;12.00;;
22965;SDS011;11649;48.090;9.754;2022-09-29T18:31:25;11.95;;;10.27;;
22965;SDS011;11649;48.090;9.754;2022-09-29T18:33:53;8.77;;;7.82;;
22965;SDS011;11649;48.090;9.754;2022-09-29T18:36:20;11.60;;;9.02;;
22965;SDS011;11649;48.090;9.754;2022-09-29T18:38:47;10.23;;;7.25;;
22965;SDS011;11649;48.090;9.754;2022-09-29T18:41:16;11.75;;;7.82;;
22965;SDS011;11649;48.090;9.754;2022-09-29T18:43:45;9.13;;;7.22;;
22965;SDS011;11649;48.090;9.754;2022-09-29T18:46:13;8.52;;;5.82;;
22965;SDS011;11649;48.090;9.754;2022-09-29T18:48:40;7.50;;;6.40;;
22965;SDS011;11649;48.090;9.754;2022-09-29T18:51:07;7.55;;;6.05;;
22965;SDS011;11649;48.090;9.754;2022-09-29T18:53:39;7.55;;;6.22;;
22965;SDS011;11649;48.090;9.754;2022-09-29T18:56:11;7.30;;;6.32;;
22965;SDS011;11649;48.090;9.754;2022-09-29T19:01:11;7.85;;;5.60;;
22965;SDS011;11649;48.090;9.754;2022-09-29T19:03:42;8.48;;;5.63;;
22965;SDS011;11649;48.090;9.754;2022-09-29T19:06:12;7.28;;;5.22;;
22965;SDS011;11649;48.090;9.754;2022-09-29T19:08:40;10.50;;;5.90;;
22965;SDS011;11649;48.090;9.754;2022-09-29T19:11:23;10.02;;;6.65;;